Egremont, Massachusetts
Current Conditions -  °F | °C
As of 5:23 AM on Thursday 23 Oct 2014 (Local Time) from KPSF Reporting Station
Light Rain Light Rain  
Wind Chill: 43°   Ceiling: 2100
Heat Index: 47°   Visibility: 9mi
Dew Point: 45°   Wind: 9mph
Humidity: 93%   Direction: 20°NNE
Pressure: 29.77"   Gusts: NA
Location:  42.1779°N, 73.3332°W
Report Text: KPSF 230923Z AUTO 02008KT 350V050 9SM -RA SCT010 OVC021 08/07 A2977 RMK AO2 P0004 T00830072
Loading
Personal Weather Stations






























Interactive Weather Map
Tropical Storm Tracking
New forecast layout! Learn more

10-Day Weather Forecast

Advertisements
Track Severe Weather on mobile